Antioch, Tennessee
Current Conditions -  °F | °C
As of 7:53 PM on Friday 28 Nov 2014 (Local Time) from KBNA Reporting Station
Few Clouds Few Clouds  
Wind Chill: 35°   Ceiling: Unl
Heat Index: 42°   Visibility: 10mi
Dew Point: 22°   Wind: 15mph
Humidity: 45%   Direction: 170°S
Pressure: 30.16"   Gusts: NA
Location:  36.06°N, 86.67°W
Report Text: KBNA 290153Z 17013KT 10SM FEW250 06/M06 A3016 RMK AO2 SLP217 T00561056
Loading
Personal Weather Stations






























Interactive Weather Map New forecast layout! Learn more

10-Day Weather Forecast

Advertisements
Track Severe Weather on mobile